createdAt,value
2023-05-19T00:00:41.160Z,32.53
2023-05-19T00:01:41.141Z,32.51
2023-05-19T00:02:41.273Z,32.60
2023-05-19T00:03:41.218Z,32.55
2023-05-19T00:04:41.205Z,32.56
2023-05-19T00:05:41.231Z,32.48
2023-05-19T00:06:41.203Z,32.54
2023-05-19T00:07:41.205Z,32.57
2023-05-19T00:08:41.210Z,32.55
2023-05-19T00:09:41.225Z,32.58
2023-05-19T00:10:41.222Z,32.58
2023-05-19T00:11:41.244Z,32.55
2023-05-19T00:12:41.290Z,32.54
2023-05-19T00:13:41.250Z,32.54
2023-05-19T00:14:41.329Z,32.57
2023-05-19T00:15:41.348Z,32.58
2023-05-19T00:16:41.372Z,32.57
2023-05-19T00:17:41.373Z,32.56
2023-05-19T00:18:41.403Z,32.60
2023-05-19T00:19:41.392Z,32.55
2023-05-19T00:20:41.434Z,32.62
2023-05-19T00:21:41.622Z,32.57
2023-05-19T00:22:41.414Z,32.63
2023-05-19T00:23:41.421Z,32.56
2023-05-19T00:24:41.467Z,32.62
2023-05-19T00:25:41.428Z,32.57
2023-05-19T00:26:41.446Z,32.68
2023-05-19T00:27:41.468Z,32.62
2023-05-19T00:28:41.447Z,32.60
2023-05-19T00:29:41.491Z,32.60
2023-05-19T00:30:41.513Z,32.63
2023-05-19T00:31:41.555Z,32.64
2023-05-19T00:32:41.585Z,32.64
2023-05-19T00:33:41.593Z,32.64
2023-05-19T00:34:41.554Z,32.65
2023-05-19T00:35:41.558Z,32.63
2023-05-19T00:36:41.590Z,32.64
2023-05-19T00:37:41.624Z,32.59
2023-05-19T00:38:41.636Z,32.60
2023-05-19T00:39:41.638Z,32.63
2023-05-19T00:40:41.648Z,32.65
2023-05-19T00:41:41.642Z,32.60
2023-05-19T00:42:41.640Z,32.59
2023-05-19T00:43:41.658Z,32.65
2023-05-19T00:44:41.704Z,32.70
2023-05-19T00:45:41.723Z,32.72
2023-05-19T00:46:41.758Z,32.74
2023-05-19T00:47:41.758Z,32.68
2023-05-19T00:48:41.750Z,32.71
2023-05-19T00:49:41.683Z,32.65
2023-05-19T00:50:41.709Z,32.75
2023-05-19T00:51:41.683Z,32.75
2023-05-19T00:52:41.730Z,32.71
2023-05-19T00:53:41.690Z,32.72
2023-05-19T00:54:41.742Z,32.71
2023-05-19T00:55:41.752Z,32.68
2023-05-19T00:56:41.764Z,32.72
2023-05-19T00:57:41.759Z,32.75
2023-05-19T00:58:41.771Z,32.66
2023-05-19T00:59:41.770Z,32.67
2023-05-19T01:00:41.850Z,32.72
2023-05-19T01:01:41.861Z,32.70
2023-05-19T01:02:41.936Z,32.79
2023-05-19T01:03:41.900Z,32.79
2023-05-19T01:04:41.948Z,32.75
2023-05-19T01:05:41.854Z,32.72
2023-05-19T01:06:41.899Z,32.76
2023-05-19T01:07:41.885Z,32.81
2023-05-19T01:08:41.894Z,32.76
2023-05-19T01:09:41.957Z,32.72
2023-05-19T01:10:41.965Z,32.79
2023-05-19T01:11:41.887Z,32.82
2023-05-19T01:12:41.930Z,32.75
2023-05-19T01:13:42.344Z,32.79
2023-05-19T01:14:41.936Z,32.75
2023-05-19T01:15:41.935Z,32.75
2023-05-19T01:16:41.983Z,32.84
2023-05-19T01:17:41.974Z,32.77
2023-05-19T01:18:41.970Z,32.79
2023-05-19T01:19:41.957Z,32.77
2023-05-19T01:20:41.964Z,32.79
2023-05-19T01:21:41.964Z,32.80
2023-05-19T01:22:42.019Z,32.79
2023-05-19T01:23:42.007Z,32.79
2023-05-19T01:24:42.062Z,32.79
2023-05-19T01:25:42.013Z,32.84
2023-05-19T01:26:42.011Z,32.80
2023-05-19T01:27:42.019Z,32.84
2023-05-19T01:28:42.023Z,32.76
2023-05-19T01:29:42.027Z,32.80
2023-05-19T01:30:41.998Z,32.76
2023-05-19T01:31:42.034Z,32.81
2023-05-19T01:32:42.051Z,32.80
2023-05-19T01:33:42.009Z,32.86
2023-05-19T01:34:42.023Z,32.73
2023-05-19T01:35:42.018Z,32.79
2023-05-19T01:36:42.018Z,32.86
2023-05-19T01:37:42.029Z,32.79
2023-05-19T01:38:42.018Z,32.83
2023-05-19T01:39:42.031Z,32.89
2023-05-19T01:40:42.028Z,32.88
2023-05-19T01:41:42.027Z,32.85
2023-05-19T01:42:42.024Z,32.87
2023-05-19T01:43:42.030Z,32.88
2023-05-19T01:44:42.022Z,32.88
2023-05-19T01:45:42.053Z,32.84
2023-05-19T01:46:42.038Z,32.88
2023-05-19T01:47:42.064Z,32.89
2023-05-19T01:48:42.019Z,32.85
2023-05-19T01:49:42.039Z,32.88
2023-05-19T01:50:42.034Z,32.85
2023-05-19T01:51:42.064Z,32.93
2023-05-19T01:52:42.108Z,32.89
2023-05-19T01:53:42.054Z,32.89
2023-05-19T01:54:42.083Z,32.92
2023-05-19T01:55:42.119Z,32.90
2023-05-19T01:56:42.193Z,32.85
2023-05-19T01:57:42.140Z,32.92
2023-05-19T01:58:42.135Z,32.89
2023-05-19T01:59:42.147Z,32.88
2023-05-19T02:00:42.171Z,32.89
2023-05-19T02:01:42.269Z,32.90
2023-05-19T02:02:42.233Z,32.90
2023-05-19T02:03:42.250Z,32.92
2023-05-19T02:04:42.352Z,32.92
2023-05-19T02:05:42.225Z,32.92
2023-05-19T02:06:42.257Z,32.92
2023-05-19T02:07:42.239Z,32.90
2023-05-19T02:08:42.225Z,32.99
2023-05-19T02:09:42.277Z,32.92
2023-05-19T02:10:42.258Z,32.94
2023-05-19T02:11:42.235Z,32.92
2023-05-19T02:12:42.237Z,32.92
2023-05-19T02:13:42.215Z,32.95
2023-05-19T02:14:42.207Z,32.98
2023-05-19T02:15:42.381Z,32.94
2023-05-19T02:16:42.234Z,32.97
2023-05-19T02:17:42.271Z,32.98
2023-05-19T02:18:42.244Z,33.02
2023-05-19T02:19:42.191Z,33.00
2023-05-19T02:20:42.166Z,33.00
2023-05-19T02:21:42.260Z,33.00
2023-05-19T02:22:42.226Z,33.01
2023-05-19T02:23:42.203Z,32.98
2023-05-19T02:24:42.215Z,33.05
2023-05-19T02:25:42.211Z,33.01
2023-05-19T02:26:42.218Z,32.98
2023-05-19T02:27:42.235Z,32.98
2023-05-19T02:28:42.207Z,33.01
2023-05-19T02:29:42.214Z,33.04
2023-05-19T02:30:42.213Z,32.96
2023-05-19T02:31:42.271Z,33.01
2023-05-19T02:32:42.261Z,33.04
2023-05-19T02:33:42.241Z,32.98
2023-05-19T02:34:42.233Z,33.01
2023-05-19T02:35:42.182Z,32.97
2023-05-19T02:36:42.200Z,33.04
2023-05-19T02:37:42.201Z,33.00
2023-05-19T02:38:42.202Z,33.01
2023-05-19T02:39:42.183Z,33.05
2023-05-19T02:40:42.173Z,33.05
2023-05-19T02:41:42.193Z,33.00
2023-05-19T02:42:42.202Z,33.04
2023-05-19T02:43:42.166Z,32.93
2023-05-19T02:44:42.173Z,32.97
2023-05-19T02:45:42.205Z,33.02
2023-05-19T02:46:42.306Z,33.07
2023-05-19T02:47:42.204Z,33.07
2023-05-19T02:48:42.175Z,33.09
2023-05-19T02:49:42.184Z,33.06
2023-05-19T02:50:42.203Z,33.02
2023-05-19T02:51:42.175Z,33.07
2023-05-19T02:52:42.171Z,33.05
2023-05-19T02:53:42.178Z,33.06
2023-05-19T02:54:42.194Z,33.02
2023-05-19T02:55:42.149Z,33.11
2023-05-19T02:56:42.154Z,33.10
2023-05-19T02:57:42.143Z,33.07
2023-05-19T02:58:42.147Z,33.09
2023-05-19T02:59:42.156Z,33.11
2023-05-19T03:00:42.132Z,33.06
2023-05-19T03:01:42.171Z,33.14
2023-05-19T03:02:42.257Z,33.10
2023-05-19T03:03:42.258Z,33.10
2023-05-19T03:04:42.167Z,33.09
2023-05-19T03:05:42.161Z,33.06
2023-05-19T03:06:42.167Z,33.06
2023-05-19T03:07:42.149Z,33.13
2023-05-19T03:08:42.519Z,33.09
2023-05-19T03:09:42.120Z,33.11
2023-05-19T03:10:42.128Z,33.11
2023-05-19T03:11:42.101Z,33.14
2023-05-19T03:12:42.104Z,33.12
2023-05-19T03:13:42.118Z,33.11
2023-05-19T03:14:42.125Z,33.11
2023-05-19T03:15:42.126Z,33.15
2023-05-19T03:16:42.384Z,33.18
2023-05-19T03:17:42.211Z,33.15
2023-05-19T03:18:42.212Z,33.16
2023-05-19T03:19:42.092Z,33.11
2023-05-19T03:20:42.098Z,33.21
2023-05-19T03:21:42.114Z,33.11
2023-05-19T03:22:42.083Z,33.15
2023-05-19T03:23:42.081Z,33.16
2023-05-19T03:24:42.084Z,33.14
2023-05-19T03:25:42.078Z,33.13
2023-05-19T03:26:42.106Z,33.14
2023-05-19T03:27:42.053Z,33.15
2023-05-19T03:28:42.071Z,33.15
2023-05-19T03:29:42.126Z,33.22
2023-05-19T03:30:42.070Z,33.19
2023-05-19T03:31:42.082Z,33.16
2023-05-19T03:32:42.147Z,33.19
2023-05-19T03:33:42.113Z,33.23
2023-05-19T03:34:42.064Z,33.19
2023-05-19T03:35:42.066Z,33.23
2023-05-19T03:36:42.079Z,33.19
2023-05-19T03:37:42.042Z,33.23
2023-05-19T03:38:42.089Z,33.22
2023-05-19T03:39:42.052Z,33.20
2023-05-19T03:40:42.104Z,33.16
2023-05-19T03:41:42.089Z,33.18
2023-05-19T03:42:42.046Z,33.16
2023-05-19T03:43:42.052Z,33.18
2023-05-19T03:44:42.052Z,33.15
2023-05-19T03:45:42.051Z,33.20
2023-05-19T03:46:42.197Z,33.15
2023-05-19T03:47:42.077Z,33.22
2023-05-19T03:48:42.036Z,33.22
2023-05-19T03:49:42.041Z,33.18
2023-05-19T03:50:42.078Z,33.25
2023-05-19T03:51:42.046Z,33.18
2023-05-19T03:52:42.042Z,33.29
2023-05-19T03:53:42.053Z,33.26
2023-05-19T03:54:42.036Z,33.30
2023-05-19T03:55:42.047Z,33.19
2023-05-19T03:56:42.055Z,33.27
2023-05-19T03:57:42.023Z,33.19
2023-05-19T03:58:42.051Z,33.25
2023-05-19T03:59:42.044Z,33.22
2023-05-19T04:00:42.051Z,33.23
2023-05-19T04:01:42.070Z,33.25
2023-05-19T04:02:42.116Z,33.20
2023-05-19T04:03:42.080Z,33.19
2023-05-19T04:04:42.058Z,33.29
2023-05-19T04:05:42.087Z,33.31
2023-05-19T04:06:42.048Z,33.23
2023-05-19T04:07:42.026Z,33.26
2023-05-19T04:08:42.044Z,33.23
2023-05-19T04:09:42.022Z,33.26
2023-05-19T04:10:42.030Z,33.27
2023-05-19T04:11:42.056Z,33.22
2023-05-19T04:12:42.024Z,33.27
2023-05-19T04:13:42.037Z,33.24
2023-05-19T04:14:41.996Z,33.29
2023-05-19T04:15:42.017Z,33.23
2023-05-19T04:16:42.016Z,33.30
2023-05-19T04:17:42.069Z,33.31
2023-05-19T04:18:42.049Z,33.30
2023-05-19T04:19:42.017Z,33.31
2023-05-19T04:20:42.017Z,33.30
2023-05-19T04:21:42.011Z,33.30
2023-05-19T04:22:42.021Z,33.25
2023-05-19T04:23:42.039Z,33.26
2023-05-19T04:24:42.040Z,33.27
2023-05-19T04:25:42.012Z,33.31
2023-05-19T04:26:42.050Z,33.33
2023-05-19T04:27:42.018Z,33.31
2023-05-19T04:28:42.022Z,33.33
2023-05-19T04:29:42.039Z,33.36
2023-05-19T04:30:42.042Z,33.32
2023-05-19T04:31:42.150Z,33.36
2023-05-19T04:32:42.032Z,33.34
2023-05-19T04:33:42.040Z,33.36
2023-05-19T04:34:42.007Z,33.35
2023-05-19T04:35:42.050Z,33.35
2023-05-19T04:36:42.031Z,33.35
2023-05-19T04:37:42.028Z,33.40
2023-05-19T04:38:42.030Z,33.34
2023-05-19T04:39:42.041Z,33.36
2023-05-19T04:40:42.017Z,33.35
2023-05-19T04:41:42.080Z,33.40
2023-05-19T04:42:42.084Z,33.39
2023-05-19T04:43:42.123Z,33.44
2023-05-19T04:44:42.074Z,33.38
2023-05-19T04:45:42.072Z,33.42
2023-05-19T04:46:42.146Z,33.44
2023-05-19T04:47:42.185Z,33.42
2023-05-19T04:48:42.105Z,33.36
2023-05-19T04:49:42.145Z,33.41
2023-05-19T04:50:42.144Z,33.43
2023-05-19T04:51:42.103Z,33.45
2023-05-19T04:52:42.129Z,33.56
2023-05-19T04:53:42.166Z,33.49
2023-05-19T04:54:42.145Z,33.48
2023-05-19T04:55:42.154Z,33.65
2023-05-19T04:56:42.175Z,33.79
2023-05-19T04:57:42.172Z,33.92
2023-05-19T04:58:42.213Z,34.00
2023-05-19T04:59:42.183Z,34.09
2023-05-19T05:00:42.191Z,34.13
2023-05-19T05:01:42.251Z,34.16
2023-05-19T05:02:42.316Z,34.24
2023-05-19T05:03:42.334Z,34.33
2023-05-19T05:04:42.206Z,34.35
2023-05-19T05:05:42.205Z,34.39
2023-05-19T05:06:42.242Z,34.40
2023-05-19T05:07:42.215Z,34.50
2023-05-19T05:08:42.218Z,34.49
2023-05-19T05:09:42.243Z,34.56
2023-05-19T05:10:42.254Z,34.56
2023-05-19T05:11:42.304Z,34.53
2023-05-19T05:12:42.299Z,34.62
2023-05-19T05:13:42.310Z,34.62
2023-05-19T05:14:42.319Z,34.64
2023-05-19T05:15:42.357Z,34.59
2023-05-19T05:16:42.385Z,34.65
2023-05-19T05:17:42.449Z,34.67
2023-05-19T05:18:44.616Z,34.54
2023-05-19T05:19:42.501Z,34.30
2023-05-19T05:20:42.499Z,34.62
2023-05-19T05:21:42.504Z,34.53
2023-05-19T05:22:42.519Z,34.33
2023-05-19T05:23:42.539Z,34.20
2023-05-19T05:24:42.579Z,34.22
2023-05-19T05:25:42.513Z,34.34
2023-05-19T05:26:42.550Z,34.42
2023-05-19T05:27:42.596Z,34.17
2023-05-19T05:28:42.583Z,34.09
2023-05-19T05:29:42.603Z,34.27
2023-05-19T05:30:42.611Z,34.14
2023-05-19T05:31:42.571Z,34.33
2023-05-19T05:32:42.716Z,34.10
2023-05-19T05:33:42.636Z,34.09
2023-05-19T05:34:42.548Z,34.09
2023-05-19T05:35:42.607Z,34.16
2023-05-19T05:36:42.598Z,34.06
2023-05-19T05:37:42.576Z,34.09
2023-05-19T05:38:42.569Z,34.11
2023-05-19T05:39:42.573Z,34.07
2023-05-19T05:40:42.587Z,34.14
2023-05-19T05:41:42.751Z,34.12
2023-05-19T05:42:42.571Z,34.01
2023-05-19T05:43:42.596Z,34.03
2023-05-19T05:44:42.576Z,34.07
2023-05-19T05:45:42.675Z,34.12
2023-05-19T05:46:42.609Z,34.11
2023-05-19T05:47:42.726Z,34.09
2023-05-19T05:48:42.631Z,34.17
2023-05-19T05:49:42.589Z,34.08
2023-05-19T05:50:42.643Z,33.98
2023-05-19T05:51:46.389Z,34.09
2023-05-19T05:52:43.583Z,34.04
2023-05-19T05:53:42.630Z,34.06
2023-05-19T05:54:42.640Z,34.10
2023-05-19T05:55:42.586Z,34.09
2023-05-19T05:56:42.568Z,34.15
2023-05-19T05:57:42.586Z,34.11
2023-05-19T05:58:42.610Z,34.00
2023-05-19T05:59:42.559Z,34.15
2023-05-19T06:00:42.554Z,34.12
2023-05-19T06:01:42.571Z,34.03
2023-05-19T06:02:42.620Z,34.10
2023-05-19T06:03:42.606Z,34.05
2023-05-19T06:04:42.547Z,34.16
2023-05-19T06:05:42.632Z,34.10
2023-05-19T06:06:42.524Z,34.19
2023-05-19T06:07:42.531Z,34.10
2023-05-19T06:08:42.556Z,34.18
2023-05-19T06:09:42.503Z,34.09
2023-05-19T06:10:43.621Z,34.10
2023-05-19T06:11:42.755Z,34.15
2023-05-19T06:12:42.668Z,34.14
2023-05-19T06:13:42.680Z,34.10
2023-05-19T06:14:42.641Z,34.09
2023-05-19T06:15:42.702Z,34.13
2023-05-19T06:16:42.694Z,34.22
2023-05-19T06:17:42.664Z,34.15
2023-05-19T06:18:42.660Z,34.24
2023-05-19T06:19:42.622Z,34.18
2023-05-19T06:20:42.642Z,34.17
2023-05-19T06:21:42.777Z,34.24
2023-05-19T06:22:42.635Z,34.18
2023-05-19T06:23:42.647Z,34.21
2023-05-19T06:24:42.649Z,34.25
2023-05-19T06:25:42.612Z,34.24
2023-05-19T06:26:42.625Z,34.21
2023-05-19T06:27:42.615Z,34.21
2023-05-19T06:28:42.600Z,34.22
2023-05-19T06:29:42.616Z,34.22
2023-05-19T06:30:42.634Z,34.24
2023-05-19T06:31:42.594Z,34.14
2023-05-19T06:32:42.650Z,34.24
2023-05-19T06:33:42.591Z,34.21
2023-05-19T06:34:42.609Z,34.18
2023-05-19T06:35:42.583Z,34.17
2023-05-19T06:36:42.761Z,34.19
2023-05-19T06:37:42.588Z,34.15
2023-05-19T06:38:42.571Z,34.24
2023-05-19T06:39:42.570Z,34.16
2023-05-19T06:40:42.571Z,34.20
2023-05-19T06:41:42.752Z,34.22
2023-05-19T06:42:42.615Z,34.27
2023-05-19T06:43:42.610Z,34.27
2023-05-19T06:44:42.612Z,34.25
2023-05-19T06:45:42.591Z,34.25
2023-05-19T06:46:42.791Z,34.36
2023-05-19T06:47:42.715Z,34.31
2023-05-19T06:48:42.613Z,34.35
2023-05-19T06:49:42.564Z,34.39
2023-05-19T06:50:42.585Z,34.60
2023-05-19T06:51:43.273Z,34.55
2023-05-19T06:52:42.597Z,34.46
2023-05-19T06:53:42.611Z,34.54
2023-05-19T06:54:42.648Z,34.50
2023-05-19T06:55:50.799Z,34.61
2023-05-19T06:56:43.758Z,34.70
2023-05-19T06:57:42.584Z,34.62
2023-05-19T06:58:42.574Z,34.47
2023-05-19T06:59:42.552Z,34.52
2023-05-19T07:00:42.536Z,34.63
2023-05-19T07:01:42.655Z,34.54
2023-05-19T07:02:42.584Z,34.69
2023-05-19T07:03:42.569Z,34.63
2023-05-19T07:04:42.548Z,34.77
2023-05-19T07:05:42.529Z,34.66
2023-05-19T07:06:42.500Z,34.77
2023-05-19T07:07:42.489Z,34.68
2023-05-19T07:08:42.480Z,34.65
2023-05-19T07:09:42.475Z,34.73
2023-05-19T07:10:42.492Z,34.74
2023-05-19T07:11:42.449Z,34.75
2023-05-19T07:12:42.452Z,34.65
2023-05-19T07:13:42.479Z,34.76
2023-05-19T07:14:42.478Z,34.75
2023-05-19T07:15:42.490Z,34.79
2023-05-19T07:16:42.454Z,34.71
2023-05-19T07:17:42.578Z,34.71
2023-05-19T07:18:42.526Z,34.67
2023-05-19T07:19:42.552Z,34.72
2023-05-19T07:20:42.587Z,34.83
2023-05-19T07:21:42.778Z,34.67
2023-05-19T07:22:42.691Z,34.70
2023-05-19T07:23:42.758Z,34.56
2023-05-19T07:24:42.779Z,34.75
2023-05-19T07:25:42.833Z,34.74
2023-05-19T07:26:43.284Z,34.68
2023-05-19T07:27:42.973Z,34.69
2023-05-19T07:28:43.047Z,34.79
2023-05-19T07:29:43.102Z,34.70
2023-05-19T07:30:43.157Z,34.70
2023-05-19T07:31:43.366Z,34.71
2023-05-19T07:32:43.302Z,34.67
2023-05-19T07:33:43.309Z,34.80
2023-05-19T07:34:43.342Z,34.67
2023-05-19T07:35:43.342Z,34.55
2023-05-19T07:36:43.306Z,34.72
2023-05-19T07:37:43.382Z,34.62
2023-05-19T07:38:43.391Z,34.77
2023-05-19T07:39:43.447Z,34.71
2023-05-19T07:40:43.497Z,34.75
2023-05-19T07:41:43.557Z,34.66
2023-05-19T07:42:43.605Z,34.67
2023-05-19T07:43:43.675Z,34.67
2023-05-19T07:44:43.773Z,34.66
2023-05-19T07:45:43.859Z,34.67
2023-05-19T07:46:44.273Z,34.67
2023-05-19T07:47:43.946Z,34.55
2023-05-19T07:48:43.958Z,34.60
2023-05-19T07:49:44.065Z,34.66
2023-05-19T07:50:44.077Z,34.72
2023-05-19T07:51:44.329Z,34.66
2023-05-19T07:52:44.235Z,34.73
2023-05-19T07:53:44.300Z,34.68
2023-05-19T07:54:44.319Z,34.90
2023-05-19T07:55:44.411Z,34.67
2023-05-19T07:56:44.793Z,35.01
2023-05-19T07:57:44.527Z,34.73
2023-05-19T07:58:44.612Z,34.68
2023-05-19T07:59:44.628Z,34.74
2023-05-19T08:00:44.688Z,34.64
2023-05-19T08:01:44.715Z,34.69
2023-05-19T08:02:44.896Z,34.78
2023-05-19T08:03:44.907Z,34.77
2023-05-19T08:04:45.011Z,34.66
2023-05-19T08:05:44.993Z,34.81
2023-05-19T08:06:45.029Z,34.68
2023-05-19T08:07:45.122Z,34.68
2023-05-19T08:08:45.149Z,34.68
2023-05-19T08:09:45.226Z,34.83
2023-05-19T08:10:45.298Z,34.80
2023-05-19T08:11:45.824Z,34.70
2023-05-19T08:12:45.387Z,34.71
2023-05-19T08:13:45.465Z,34.78
2023-05-19T08:14:45.544Z,34.64
2023-05-19T08:15:45.584Z,34.64
2023-05-19T08:16:45.654Z,34.75
2023-05-19T08:17:45.757Z,34.74
2023-05-19T08:18:45.791Z,34.87
2023-05-19T08:19:45.850Z,34.75
2023-05-19T08:20:45.917Z,34.79
2023-05-19T08:21:45.980Z,34.77
2023-05-19T08:22:45.976Z,34.76
2023-05-19T08:23:46.045Z,34.70
2023-05-19T08:24:46.146Z,34.71
2023-05-19T08:25:46.192Z,34.74
2023-05-19T08:26:46.281Z,34.92
2023-05-19T08:27:46.286Z,34.87
2023-05-19T08:28:46.332Z,34.63
2023-05-19T08:29:46.378Z,34.86
2023-05-19T08:30:46.448Z,35.05
2023-05-19T08:31:46.600Z,34.65
2023-05-19T08:32:46.564Z,34.77
2023-05-19T08:33:46.576Z,34.89
2023-05-19T08:34:46.625Z,34.90
2023-05-19T08:35:46.678Z,35.03
2023-05-19T08:36:46.849Z,35.26
2023-05-19T08:37:46.730Z,35.24
2023-05-19T08:38:46.756Z,34.98
2023-05-19T08:39:46.801Z,35.08
2023-05-19T08:40:46.858Z,35.17
2023-05-19T08:41:46.903Z,35.30
2023-05-19T08:42:46.957Z,34.85
2023-05-19T08:43:47.017Z,35.06
2023-05-19T08:44:47.042Z,35.02
2023-05-19T08:45:47.072Z,35.05
2023-05-19T08:46:47.114Z,35.11
2023-05-19T08:47:47.131Z,35.05
2023-05-19T08:48:47.159Z,35.00
2023-05-19T08:49:47.163Z,35.06
2023-05-19T08:50:47.192Z,35.04
2023-05-19T08:51:47.193Z,34.89
2023-05-19T08:52:50.260Z,35.10
2023-05-19T08:53:47.186Z,35.03
2023-05-19T08:54:47.165Z,34.89
2023-05-19T08:55:47.152Z,35.03
2023-05-19T08:56:47.341Z,34.92
2023-05-19T08:57:47.142Z,35.04
2023-05-19T08:58:47.120Z,35.04
2023-05-19T08:59:47.118Z,34.95
2023-05-19T09:00:47.153Z,34.97
2023-05-19T09:01:47.141Z,35.05
2023-05-19T09:02:55.477Z,35.00
2023-05-19T09:03:48.185Z,34.80
2023-05-19T09:04:47.118Z,35.11
2023-05-19T09:05:47.171Z,34.92
2023-05-19T09:06:47.077Z,34.89
2023-05-19T09:07:47.077Z,35.17
2023-05-19T09:08:47.079Z,34.94
2023-05-19T09:09:47.072Z,35.15
2023-05-19T09:10:47.034Z,35.01
2023-05-19T09:11:47.059Z,35.00
2023-05-19T09:12:47.025Z,35.08
2023-05-19T09:13:47.045Z,35.23
2023-05-19T09:14:47.115Z,34.93
2023-05-19T09:15:47.161Z,35.00
2023-05-19T09:16:47.297Z,35.10
2023-05-19T09:17:47.239Z,34.95
2023-05-19T09:18:47.327Z,34.99
2023-05-19T09:19:47.372Z,35.06
2023-05-19T09:20:47.381Z,34.94
2023-05-19T09:21:47.406Z,34.94
2023-05-19T09:22:47.490Z,35.01
2023-05-19T09:23:47.509Z,35.01
2023-05-19T09:24:47.565Z,35.04
2023-05-19T09:25:47.604Z,34.94
2023-05-19T09:26:47.600Z,34.84
2023-05-19T09:27:47.601Z,35.02
2023-05-19T09:28:47.649Z,34.87
2023-05-19T09:29:47.689Z,34.94
2023-05-19T09:30:47.769Z,35.04
2023-05-19T09:31:48.375Z,34.99
2023-05-19T09:32:47.943Z,35.02
2023-05-19T09:33:48.022Z,34.98
2023-05-19T09:34:48.006Z,34.92
2023-05-19T09:35:48.046Z,35.11
2023-05-19T09:36:48.327Z,35.02
2023-05-19T09:37:48.150Z,34.92
2023-05-19T09:38:48.240Z,34.89
2023-05-19T09:39:48.268Z,34.97
2023-05-19T09:40:48.356Z,35.03
2023-05-19T09:41:48.428Z,34.91
2023-05-19T09:42:48.468Z,34.96
2023-05-19T09:43:48.526Z,34.91
2023-05-19T09:44:48.616Z,34.86
2023-05-19T09:45:48.632Z,34.93
2023-05-19T09:46:48.729Z,34.85
2023-05-19T09:47:48.794Z,34.85
2023-05-19T09:48:48.812Z,34.95
2023-05-19T09:49:48.895Z,34.85
2023-05-19T09:50:48.968Z,34.94
2023-05-19T09:51:48.997Z,34.96
2023-05-19T09:52:49.092Z,34.92
2023-05-19T09:53:49.114Z,34.97
2023-05-19T09:54:49.187Z,34.98
2023-05-19T09:55:49.257Z,34.93
2023-05-19T09:56:49.347Z,34.88
2023-05-19T09:57:49.365Z,34.85
2023-05-19T09:58:49.444Z,34.82
2023-05-19T09:59:49.463Z,34.79
2023-05-19T10:00:49.530Z,34.83
2023-05-19T10:01:49.730Z,34.80
2023-05-19T10:02:49.718Z,34.87
2023-05-19T10:03:49.751Z,34.94
2023-05-19T10:04:49.843Z,34.86
2023-05-19T10:05:49.871Z,34.91
2023-05-19T10:06:50.014Z,34.87
2023-05-19T10:07:50.053Z,34.79
2023-05-19T10:08:50.061Z,34.85
2023-05-19T10:09:50.073Z,34.78
2023-05-19T10:10:50.148Z,34.88
2023-05-19T10:11:50.201Z,34.88
2023-05-19T10:12:50.270Z,34.84
2023-05-19T10:13:50.322Z,34.87
2023-05-19T10:14:50.396Z,34.91
2023-05-19T10:16:50.494Z,34.90
2023-05-19T10:17:50.467Z,34.93
2023-05-19T10:18:50.457Z,34.78
2023-05-19T10:19:50.426Z,34.84
2023-05-19T10:20:50.392Z,34.89
2023-05-19T10:21:50.447Z,34.87
2023-05-19T10:22:50.418Z,34.85
2023-05-19T10:23:50.403Z,34.85
2023-05-19T10:24:50.396Z,34.85
2023-05-19T10:25:50.361Z,34.88
2023-05-19T10:26:50.373Z,34.90
2023-05-19T10:27:50.354Z,34.88
2023-05-19T10:28:50.333Z,34.92
2023-05-19T10:29:50.351Z,34.87
2023-05-19T10:30:50.335Z,34.86
2023-05-19T10:31:50.394Z,34.88
2023-05-19T10:32:50.362Z,34.83
2023-05-19T10:33:50.317Z,35.02
2023-05-19T10:34:50.429Z,35.11
2023-05-19T10:35:50.292Z,35.01
2023-05-19T10:36:50.363Z,34.93
2023-05-19T10:37:50.270Z,35.11
2023-05-19T10:38:50.288Z,35.14
2023-05-19T10:39:50.281Z,35.07
2023-05-19T10:40:50.268Z,35.00
2023-05-19T10:41:50.361Z,34.96
2023-05-19T10:42:50.253Z,34.97
2023-05-19T10:43:50.256Z,35.04
2023-05-19T10:44:50.249Z,34.91
2023-05-19T10:45:50.228Z,34.97
2023-05-19T10:46:50.296Z,35.09
2023-05-19T10:47:50.250Z,35.17
2023-05-19T10:48:50.196Z,35.03
2023-05-19T10:49:50.229Z,35.08
2023-05-19T10:50:50.185Z,35.09
2023-05-19T10:51:50.204Z,35.19
2023-05-19T10:52:50.176Z,35.12
2023-05-19T10:53:50.169Z,35.21
2023-05-19T10:54:50.209Z,35.12
2023-05-19T10:55:50.185Z,35.08
2023-05-19T10:56:50.214Z,35.05
2023-05-19T10:57:50.193Z,35.21
2023-05-19T10:58:50.218Z,35.06
2023-05-19T10:59:50.275Z,35.10
2023-05-19T11:00:50.306Z,35.09
2023-05-19T11:01:50.411Z,35.14
2023-05-19T11:02:50.478Z,35.25
2023-05-19T11:03:50.528Z,35.08
2023-05-19T11:04:51.877Z,35.25
2023-05-19T11:05:50.586Z,35.17
2023-05-19T11:06:50.636Z,35.08
2023-05-19T11:07:50.662Z,35.23
2023-05-19T11:08:50.776Z,35.17
2023-05-19T11:09:50.735Z,35.16
2023-05-19T11:10:50.785Z,35.16
2023-05-19T11:11:50.864Z,35.22
2023-05-19T11:12:52.092Z,35.31
2023-05-19T11:13:50.964Z,35.39
2023-05-19T11:14:50.966Z,35.16
2023-05-19T11:15:51.042Z,35.21
2023-05-19T11:16:51.107Z,35.27
2023-05-19T11:17:51.110Z,35.21
2023-05-19T11:18:51.205Z,35.30
2023-05-19T11:19:51.204Z,35.25
2023-05-19T11:20:51.295Z,35.26
2023-05-19T11:21:51.306Z,35.40
2023-05-19T11:22:51.351Z,35.35
2023-05-19T11:23:51.436Z,35.33
2023-05-19T11:24:51.454Z,35.34
2023-05-19T11:25:51.654Z,35.35
2023-05-19T11:26:51.866Z,35.44
2023-05-19T11:27:51.580Z,35.69
2023-05-19T11:28:51.622Z,35.69
2023-05-19T11:29:51.659Z,35.37
2023-05-19T11:30:51.859Z,35.45
2023-05-19T11:31:51.918Z,35.40
2023-05-19T11:32:51.860Z,35.40
2023-05-19T11:33:51.847Z,35.53
2023-05-19T11:34:51.882Z,35.45
2023-05-19T11:35:51.950Z,35.39
2023-05-19T11:36:52.043Z,35.55
2023-05-19T11:37:52.049Z,35.36
2023-05-19T11:38:52.086Z,35.50
2023-05-19T11:39:52.166Z,35.45
2023-05-19T11:40:52.196Z,35.71
2023-05-19T11:41:52.243Z,35.49
2023-05-19T11:42:52.302Z,35.60
2023-05-19T11:43:52.356Z,35.52
2023-05-19T11:44:52.386Z,35.64
2023-05-19T11:45:52.537Z,35.59
2023-05-19T11:46:52.517Z,35.49
2023-05-19T11:48:53.520Z,35.58
2023-05-19T11:49:52.557Z,35.59
2023-05-19T11:50:52.562Z,35.49
2023-05-19T11:51:52.890Z,36.09
2023-05-19T11:52:52.488Z,35.66
2023-05-19T11:53:52.471Z,36.04
2023-05-19T11:54:52.471Z,35.65
2023-05-19T11:55:52.710Z,36.12
2023-05-19T11:56:52.455Z,35.80
2023-05-19T11:58:02.834Z,35.62
2023-05-19T11:58:53.431Z,36.10
2023-05-19T11:59:52.430Z,35.68
2023-05-19T12:00:52.431Z,35.79
2023-05-19T12:01:52.409Z,36.31
2023-05-19T12:02:52.479Z,36.23
2023-05-19T12:03:52.743Z,35.75
2023-05-19T12:04:52.489Z,35.80
2023-05-19T12:05:52.485Z,35.77
2023-05-19T12:06:52.380Z,35.81
2023-05-19T12:07:52.400Z,35.95
2023-05-19T12:08:52.363Z,35.87
2023-05-19T12:09:52.404Z,35.72
2023-05-19T12:10:52.473Z,35.69
2023-05-19T12:11:52.505Z,35.68
2023-05-19T12:12:52.523Z,35.82
2023-05-19T12:13:52.619Z,35.60
2023-05-19T12:14:52.653Z,35.63
2023-05-19T12:15:52.726Z,35.59
2023-05-19T12:16:52.938Z,35.62
2023-05-19T12:17:52.797Z,35.58
2023-05-19T12:18:52.793Z,35.63
2023-05-19T12:19:52.807Z,35.60
2023-05-19T12:20:52.891Z,35.67
2023-05-19T12:21:53.395Z,35.56
2023-05-19T12:22:52.926Z,35.65
2023-05-19T12:23:53.014Z,35.61
2023-05-19T12:24:53.052Z,35.58
2023-05-19T12:25:53.094Z,35.63
2023-05-19T12:26:53.403Z,35.46
2023-05-19T12:27:53.223Z,35.53
2023-05-19T12:28:53.209Z,35.54
2023-05-19T12:29:53.238Z,35.47
2023-05-19T12:30:53.299Z,35.53
2023-05-19T12:31:53.434Z,35.46
2023-05-19T12:32:53.421Z,35.50
2023-05-19T12:33:53.456Z,35.50
2023-05-19T12:34:53.457Z,35.37
2023-05-19T12:35:53.551Z,35.47
2023-05-19T12:36:53.588Z,35.39
2023-05-19T12:37:53.630Z,35.46
2023-05-19T12:38:53.659Z,35.51
2023-05-19T12:39:53.708Z,35.45
2023-05-19T12:40:53.738Z,35.39
2023-05-19T12:41:53.822Z,35.37
2023-05-19T12:42:53.856Z,35.33
2023-05-19T12:43:53.954Z,35.32
2023-05-19T12:44:53.956Z,35.24
2023-05-19T12:45:53.998Z,35.24
2023-05-19T12:46:54.065Z,35.18
2023-05-19T12:47:54.153Z,35.17
2023-05-19T12:48:54.116Z,35.19
2023-05-19T12:49:54.196Z,35.23
2023-05-19T12:50:54.227Z,35.13
2023-05-19T12:51:54.272Z,35.12
2023-05-19T12:52:54.330Z,35.14
2023-05-19T12:53:54.369Z,35.17
2023-05-19T12:54:54.425Z,35.19